createdAt,value
2018-07-25T00:01:05.967Z,83.70
2018-07-25T00:03:35.107Z,84.20
2018-07-25T00:06:04.226Z,84.10
2018-07-25T00:11:02.172Z,84.50
2018-07-25T00:13:31.416Z,85.70
2018-07-25T00:16:00.879Z,85.10
2018-07-25T00:18:30.373Z,85.30
2018-07-25T00:21:00.059Z,85.50
2018-07-25T00:23:29.203Z,85.80
2018-07-25T00:26:03.872Z,86.20
2018-07-25T00:28:34.283Z,86.50
2018-07-25T00:33:32.324Z,86.20
2018-07-25T00:36:01.491Z,86.50
2018-07-25T00:38:30.922Z,87.30
2018-07-25T00:41:00.258Z,88.00
2018-07-25T00:43:29.325Z,88.60
2018-07-25T00:45:58.976Z,88.70
2018-07-25T00:48:28.191Z,89.20
2018-07-25T00:50:57.290Z,89.30
2018-07-25T00:53:26.459Z,89.80
2018-07-25T00:55:55.615Z,89.90
2018-07-25T00:58:24.798Z,90.60
2018-07-25T01:00:54.063Z,90.10
2018-07-25T01:03:23.719Z,90.20
2018-07-25T01:05:52.815Z,90.30
2018-07-25T01:08:22.527Z,90.20
2018-07-25T01:10:51.722Z,90.70
2018-07-25T01:13:20.809Z,90.70
2018-07-25T01:15:50.054Z,90.70
2018-07-25T01:18:19.274Z,90.70
2018-07-25T01:20:48.349Z,91.00
2018-07-25T01:23:17.499Z,91.20
2018-07-25T01:25:46.614Z,91.20
2018-07-25T01:28:16.667Z,91.00
2018-07-25T01:30:45.723Z,90.90
2018-07-25T01:33:14.879Z,91.00
2018-07-25T01:35:43.954Z,91.70
2018-07-25T01:40:42.693Z,93.70
2018-07-25T01:43:11.887Z,94.50
2018-07-25T01:45:41.125Z,95.10
2018-07-25T01:48:10.285Z,96.00
2018-07-25T01:50:39.605Z,96.10
2018-07-25T01:53:08.703Z,95.90
2018-07-25T01:55:38.127Z,96.10
2018-07-25T01:58:07.218Z,96.60
2018-07-25T02:00:37.013Z,96.80
2018-07-25T02:03:06.833Z,97.30
2018-07-25T02:05:36.072Z,97.40
2018-07-25T02:08:05.393Z,97.60
2018-07-25T02:10:38.238Z,97.20
2018-07-25T02:13:08.173Z,97.30
2018-07-25T02:15:37.302Z,99.50
2018-07-25T02:18:07.402Z,99.90
2018-07-25T02:20:37.326Z,99.90
2018-07-25T02:23:06.460Z,99.90
2018-07-25T02:25:35.686Z,99.90
2018-07-25T02:28:05.831Z,99.90
2018-07-25T02:30:35.023Z,99.90
2018-07-25T02:33:04.133Z,99.90
2018-07-25T02:35:33.572Z,99.90
2018-07-25T02:38:02.715Z,99.90
2018-07-25T02:40:31.911Z,99.90
2018-07-25T02:43:01.791Z,99.90
2018-07-25T02:45:36.283Z,99.90
2018-07-25T02:48:06.048Z,99.90
2018-07-25T02:50:35.570Z,99.90
2018-07-25T02:53:05.057Z,99.90
2018-07-25T02:58:03.321Z,99.90
2018-07-25T03:00:32.663Z,99.90
2018-07-25T03:03:02.188Z,99.90
2018-07-25T03:08:00.251Z,99.90
2018-07-25T03:10:29.972Z,99.90
2018-07-25T03:12:59.279Z,99.90
2018-07-25T03:15:28.903Z,99.90
2018-07-25T03:17:58.085Z,99.90
2018-07-25T03:20:27.687Z,99.90
2018-07-25T03:22:56.839Z,99.90
2018-07-25T03:25:26.528Z,99.90
2018-07-25T03:27:56.025Z,99.90
2018-07-25T03:30:25.153Z,99.90
2018-07-25T03:32:54.322Z,99.90
2018-07-25T03:35:23.511Z,99.90
2018-07-25T03:37:52.778Z,99.90
2018-07-25T03:40:22.170Z,99.90
2018-07-25T03:42:51.407Z,99.90
2018-07-25T03:45:20.548Z,99.90
2018-07-25T03:47:49.652Z,99.90
2018-07-25T03:50:18.761Z,99.90
2018-07-25T03:52:47.841Z,99.90
2018-07-25T03:55:16.993Z,99.90
2018-07-25T03:57:46.539Z,99.90
2018-07-25T04:00:15.815Z,99.90
2018-07-25T04:02:45.063Z,99.90
2018-07-25T04:07:45.754Z,99.90
2018-07-25T04:10:15.254Z,99.90
2018-07-25T04:12:45.170Z,99.90
2018-07-25T04:15:14.362Z,99.90
2018-07-25T04:17:47.631Z,99.90
2018-07-25T04:22:46.667Z,99.90
2018-07-25T04:25:16.077Z,99.90
2018-07-25T04:27:46.481Z,99.90
2018-07-25T04:30:17.269Z,99.90
2018-07-25T04:32:47.386Z,99.90
2018-07-25T04:35:17.051Z,99.90
2018-07-25T04:37:46.152Z,99.90
2018-07-25T04:40:15.240Z,99.90
2018-07-25T04:42:44.398Z,99.90
2018-07-25T04:45:13.572Z,99.90
2018-07-25T04:47:42.718Z,99.90
2018-07-25T04:50:11.932Z,99.90
2018-07-25T04:52:41.279Z,99.90
2018-07-25T04:55:10.401Z,99.90
2018-07-25T04:57:39.706Z,99.90
2018-07-25T05:00:09.069Z,99.90
2018-07-25T05:02:41.000Z,99.90
2018-07-25T05:05:10.353Z,99.90
2018-07-25T05:07:39.578Z,99.90
2018-07-25T05:10:09.877Z,99.90
2018-07-25T05:12:39.059Z,99.90
2018-07-25T05:15:08.410Z,99.90
2018-07-25T05:17:37.616Z,99.90
2018-07-25T05:20:07.754Z,99.90
2018-07-25T05:22:36.975Z,99.90
2018-07-25T05:25:06.141Z,99.90
2018-07-25T05:27:35.408Z,99.90
2018-07-25T05:30:04.921Z,99.90
2018-07-25T05:32:34.431Z,99.90
2018-07-25T05:35:04.817Z,99.90
2018-07-25T05:37:34.027Z,99.90
2018-07-25T05:40:03.244Z,99.90
2018-07-25T05:42:32.311Z,99.90
2018-07-25T05:45:01.804Z,99.90
2018-07-25T05:47:30.902Z,99.90
2018-07-25T05:50:00.275Z,99.90
2018-07-25T05:52:29.353Z,99.90
2018-07-25T05:54:58.551Z,99.90
2018-07-25T05:57:27.911Z,99.90
2018-07-25T05:59:57.064Z,99.90
2018-07-25T06:02:26.433Z,99.90
2018-07-25T06:04:55.664Z,99.90
2018-07-25T06:07:24.787Z,99.90
2018-07-25T06:09:53.959Z,99.90
2018-07-25T06:12:23.377Z,99.90
2018-07-25T06:14:52.749Z,99.90
2018-07-25T06:17:21.785Z,99.90
2018-07-25T06:19:51.001Z,99.90
2018-07-25T06:22:20.199Z,99.90
2018-07-25T06:24:49.497Z,99.90
2018-07-25T06:27:19.271Z,99.90
2018-07-25T06:29:48.539Z,99.90
2018-07-25T06:32:17.895Z,99.90
2018-07-25T06:34:47.106Z,99.90
2018-07-25T06:37:16.717Z,99.90
2018-07-25T06:39:45.879Z,99.90
2018-07-25T06:42:15.243Z,99.90
2018-07-25T06:44:45.306Z,99.90
2018-07-25T06:47:14.527Z,99.90
2018-07-25T06:49:43.793Z,99.90
2018-07-25T06:52:12.972Z,99.90
2018-07-25T06:54:42.144Z,99.90
2018-07-25T06:57:11.281Z,99.90
2018-07-25T06:59:40.287Z,99.90
2018-07-25T07:02:09.645Z,99.90
2018-07-25T07:04:38.716Z,99.90
2018-07-25T07:07:08.703Z,99.90
2018-07-25T07:09:37.853Z,99.90
2018-07-25T07:12:07.194Z,99.90
2018-07-25T07:14:36.341Z,99.90
2018-07-25T07:17:05.563Z,99.90
2018-07-25T07:19:34.726Z,99.90
2018-07-25T07:22:03.877Z,99.90
2018-07-25T07:27:02.139Z,99.90
2018-07-25T07:29:31.606Z,99.90
2018-07-25T07:32:00.920Z,99.90
2018-07-25T07:34:30.123Z,99.90
2018-07-25T07:36:59.644Z,99.90
2018-07-25T07:39:28.857Z,99.90
2018-07-25T07:41:58.280Z,99.90
2018-07-25T07:44:28.768Z,99.90
2018-07-25T07:46:58.114Z,99.90
2018-07-25T07:49:27.377Z,99.90
2018-07-25T07:51:56.732Z,99.90
2018-07-25T07:54:26.089Z,99.90
2018-07-25T07:56:55.515Z,99.90
2018-07-25T07:59:24.961Z,99.90
2018-07-25T08:01:54.242Z,99.90
2018-07-25T08:04:23.800Z,99.90
2018-07-25T08:06:52.966Z,99.30
2018-07-25T08:09:22.213Z,99.90
2018-07-25T08:11:51.359Z,98.10
2018-07-25T08:14:20.497Z,98.20
2018-07-25T08:16:49.838Z,97.40
2018-07-25T08:19:19.095Z,96.60
2018-07-25T08:21:48.303Z,96.50
2018-07-25T08:24:17.410Z,95.90
2018-07-25T08:26:46.855Z,95.90
2018-07-25T08:29:16.013Z,94.60
2018-07-25T08:31:45.183Z,93.30
2018-07-25T08:34:14.613Z,93.10
2018-07-25T08:36:43.777Z,93.40
2018-07-25T08:39:14.339Z,93.10
2018-07-25T08:41:43.624Z,92.80
2018-07-25T08:44:12.684Z,92.90
2018-07-25T08:46:42.137Z,93.30
2018-07-25T08:49:11.427Z,92.60
2018-07-25T08:51:40.511Z,92.80
2018-07-25T09:01:36.205Z,91.10
2018-07-25T09:04:05.663Z,91.20
2018-07-25T09:06:35.009Z,90.80
2018-07-25T09:09:07.042Z,90.70
2018-07-25T09:11:36.608Z,90.30
2018-07-25T09:14:07.287Z,88.60
2018-07-25T09:16:36.371Z,90.20
2018-07-25T09:19:06.150Z,89.20
2018-07-25T09:21:35.241Z,87.90
2018-07-25T09:24:04.572Z,87.70
2018-07-25T09:26:33.934Z,88.80
2018-07-25T09:29:03.166Z,85.90
2018-07-25T09:31:32.399Z,85.30
2018-07-25T09:34:02.091Z,85.60
2018-07-25T09:36:31.920Z,85.80
2018-07-25T09:39:01.077Z,86.20
2018-07-25T09:41:30.439Z,85.30
2018-07-25T09:43:59.812Z,85.80
2018-07-25T09:46:29.244Z,84.10
2018-07-25T09:48:58.305Z,86.10
2018-07-25T09:51:27.520Z,84.20
2018-07-25T09:53:56.655Z,84.90
2018-07-25T09:56:26.519Z,84.20
2018-07-25T09:58:55.879Z,84.20
2018-07-25T10:01:24.994Z,82.00
2018-07-25T10:03:54.920Z,82.40
2018-07-25T10:06:24.013Z,82.60
2018-07-25T10:08:54.300Z,81.90
2018-07-25T10:11:24.120Z,80.70
2018-07-25T10:13:54.595Z,80.70
2018-07-25T10:18:52.861Z,80.70
2018-07-25T10:21:21.971Z,79.10
2018-07-25T10:23:51.310Z,80.10
2018-07-25T10:26:20.576Z,78.90
2018-07-25T10:28:49.920Z,79.00
2018-07-25T10:31:19.651Z,77.60
2018-07-25T10:33:48.692Z,76.80
2018-07-25T10:36:17.802Z,78.40
2018-07-25T10:38:47.372Z,77.40
2018-07-25T10:41:16.570Z,77.20
2018-07-25T10:43:46.457Z,75.30
2018-07-25T10:46:16.617Z,73.60
2018-07-25T10:48:45.928Z,73.70
2018-07-25T10:51:15.121Z,75.60
2018-07-25T10:53:44.237Z,74.60
2018-07-25T10:56:13.462Z,74.50
2018-07-25T10:58:42.729Z,74.80
2018-07-25T11:01:11.943Z,74.00
2018-07-25T11:03:41.537Z,73.50
2018-07-25T11:06:11.874Z,73.90
2018-07-25T11:08:40.962Z,74.50
2018-07-25T11:11:10.100Z,74.60
2018-07-25T11:13:39.334Z,73.60
2018-07-25T11:16:08.759Z,72.20
2018-07-25T11:18:38.627Z,73.50
2018-07-25T11:21:08.379Z,72.70
2018-07-25T11:23:37.605Z,72.40
2018-07-25T11:26:06.879Z,72.10
2018-07-25T11:31:04.835Z,72.00
2018-07-25T11:33:34.102Z,72.40
2018-07-25T11:36:03.752Z,73.00
2018-07-25T11:38:32.943Z,72.20
2018-07-25T11:41:02.245Z,71.30
2018-07-25T11:43:31.310Z,71.00
2018-07-25T11:46:00.497Z,70.30
2018-07-25T11:48:30.819Z,70.70
2018-07-25T11:50:59.983Z,69.50
2018-07-25T11:53:29.100Z,69.90
2018-07-25T11:55:58.377Z,68.70
2018-07-25T11:58:27.681Z,69.90
2018-07-25T12:00:56.992Z,69.70
2018-07-25T12:03:26.090Z,67.90
2018-07-25T12:05:55.295Z,67.30
2018-07-25T12:08:24.543Z,67.80
2018-07-25T12:10:53.814Z,68.90
2018-07-25T12:13:23.127Z,68.20
2018-07-25T12:15:52.380Z,67.20
2018-07-25T12:18:21.591Z,66.80
2018-07-25T12:20:50.667Z,66.10
2018-07-25T12:23:19.971Z,66.80
2018-07-25T12:25:49.174Z,68.10
2018-07-25T12:28:18.303Z,67.60
2018-07-25T12:30:47.402Z,65.80
2018-07-25T12:33:16.631Z,66.70
2018-07-25T12:38:14.697Z,65.90
2018-07-25T12:40:44.554Z,65.70
2018-07-25T12:43:13.710Z,64.90
2018-07-25T12:45:43.257Z,64.30
2018-07-25T12:48:13.287Z,64.10
2018-07-25T12:50:42.353Z,65.40
2018-07-25T12:53:11.581Z,63.30
2018-07-25T12:55:40.667Z,63.20
2018-07-25T12:58:10.122Z,62.70
2018-07-25T13:00:39.258Z,61.60
2018-07-25T13:05:37.518Z,61.70
2018-07-25T13:08:06.642Z,61.90
2018-07-25T13:10:35.981Z,60.70
2018-07-25T13:13:05.129Z,61.10
2018-07-25T13:15:34.467Z,59.90
2018-07-25T13:18:03.693Z,60.20
2018-07-25T13:20:33.134Z,60.30
2018-07-25T13:23:02.567Z,61.30
2018-07-25T13:25:31.766Z,60.10
2018-07-25T13:28:01.021Z,60.10
2018-07-25T13:30:30.434Z,59.80
2018-07-25T13:32:59.736Z,59.00
2018-07-25T13:35:29.053Z,58.30
2018-07-25T13:37:58.529Z,59.00
2018-07-25T13:40:28.794Z,58.70
2018-07-25T13:45:27.953Z,57.10
2018-07-25T13:47:57.074Z,57.90
2018-07-25T13:50:26.565Z,57.20
2018-07-25T13:52:55.917Z,57.50
2018-07-25T13:55:25.210Z,58.10
2018-07-25T13:57:54.559Z,58.70
2018-07-25T14:00:24.178Z,58.20
2018-07-25T14:02:53.328Z,58.50
2018-07-25T14:05:22.602Z,57.70
2018-07-25T14:07:52.486Z,57.30
2018-07-25T14:10:21.844Z,57.20
2018-07-25T14:12:51.188Z,56.80
2018-07-25T14:15:20.402Z,56.60
2018-07-25T14:17:50.246Z,55.80
2018-07-25T14:20:19.635Z,56.30
2018-07-25T14:22:48.782Z,56.60
2018-07-25T14:25:18.054Z,55.90
2018-07-25T14:27:47.494Z,55.20
2018-07-25T14:30:16.926Z,54.40
2018-07-25T14:35:14.881Z,53.50
2018-07-25T14:37:44.076Z,53.70
2018-07-25T14:40:13.273Z,53.60
2018-07-25T14:42:42.587Z,52.90
2018-07-25T14:45:11.979Z,52.30
2018-07-25T14:47:41.384Z,52.60
2018-07-25T14:50:10.511Z,53.30
2018-07-25T14:52:39.773Z,53.80
2018-07-25T14:55:09.018Z,53.80
2018-07-25T14:57:38.253Z,54.70
2018-07-25T15:00:07.791Z,54.80
2018-07-25T15:02:37.188Z,55.00
2018-07-25T15:05:06.253Z,55.20
2018-07-25T15:07:35.525Z,55.20
2018-07-25T15:10:05.558Z,54.20
2018-07-25T15:12:39.916Z,55.20
2018-07-25T15:15:09.879Z,54.30
2018-07-25T15:17:39.119Z,53.70
2018-07-25T15:20:09.634Z,53.90
2018-07-25T15:22:39.567Z,53.30
2018-07-25T15:25:09.237Z,52.60
2018-07-25T15:27:39.199Z,52.90
2018-07-25T15:30:09.752Z,52.40
2018-07-25T15:32:38.923Z,52.10
2018-07-25T15:35:08.782Z,51.70
2018-07-25T15:37:38.397Z,51.30
2018-07-25T15:40:08.207Z,51.40
2018-07-25T15:42:37.324Z,52.30
2018-07-25T15:45:06.946Z,52.20
2018-07-25T15:47:36.241Z,51.50
2018-07-25T15:50:06.034Z,50.90
2018-07-25T15:52:35.265Z,50.80
2018-07-25T15:55:04.602Z,50.20
2018-07-25T15:57:34.179Z,50.30
2018-07-25T16:00:03.485Z,50.50
2018-07-25T16:02:32.854Z,50.80
2018-07-25T16:05:02.172Z,50.40
2018-07-25T16:07:31.341Z,50.30
2018-07-25T16:10:00.557Z,49.70
2018-07-25T16:12:29.621Z,49.60
2018-07-25T16:14:58.687Z,49.70
2018-07-25T16:17:28.024Z,49.60
2018-07-25T16:19:57.183Z,49.90
2018-07-25T16:22:26.707Z,50.00
2018-07-25T16:24:56.029Z,49.40
2018-07-25T16:27:25.371Z,49.50
2018-07-25T16:29:54.759Z,50.10
2018-07-25T16:32:25.071Z,50.00
2018-07-25T16:34:54.227Z,50.10
2018-07-25T16:37:23.334Z,50.90
2018-07-25T16:39:52.737Z,51.20
2018-07-25T16:42:22.484Z,51.30
2018-07-25T16:44:51.731Z,51.20
2018-07-25T16:47:20.909Z,51.70
2018-07-25T16:49:50.250Z,51.30
2018-07-25T16:52:19.479Z,51.80
2018-07-25T16:54:48.850Z,51.70
2018-07-25T16:57:18.509Z,51.90
2018-07-25T16:59:47.764Z,52.20
2018-07-25T17:02:16.992Z,52.50
2018-07-25T17:04:46.167Z,52.10
2018-07-25T17:07:15.472Z,51.50
2018-07-25T17:09:44.681Z,51.50
2018-07-25T17:12:13.839Z,51.20
2018-07-25T17:14:43.023Z,50.80
2018-07-25T17:19:46.980Z,51.50
2018-07-25T17:24:45.181Z,51.30
2018-07-25T17:27:14.489Z,51.90
2018-07-25T17:29:44.254Z,51.10
2018-07-25T17:32:13.791Z,51.40
2018-07-25T17:34:43.042Z,51.50
2018-07-25T17:37:12.195Z,51.00
2018-07-25T17:39:41.837Z,51.40
2018-07-25T17:42:11.240Z,51.00
2018-07-25T17:44:40.725Z,51.20
2018-07-25T17:47:10.582Z,51.70
2018-07-25T17:49:39.686Z,52.10
2018-07-25T17:52:08.992Z,52.10
2018-07-25T17:54:38.152Z,51.90
2018-07-25T17:57:07.331Z,51.90
2018-07-25T17:59:36.645Z,52.10
2018-07-25T18:02:05.820Z,53.00
2018-07-25T18:04:34.953Z,54.00
2018-07-25T18:07:05.090Z,54.10
2018-07-25T18:09:34.937Z,55.30
2018-07-25T18:12:04.323Z,55.70
2018-07-25T18:14:33.527Z,56.50
2018-07-25T18:17:03.003Z,57.00
2018-07-25T18:19:33.206Z,57.00
2018-07-25T18:22:02.811Z,57.30
2018-07-25T18:24:32.005Z,57.90
2018-07-25T18:27:01.676Z,57.80
2018-07-25T18:29:30.876Z,58.20
2018-07-25T18:32:00.051Z,58.60
2018-07-25T18:34:29.205Z,59.20
2018-07-25T18:36:59.128Z,59.30
2018-07-25T18:39:28.428Z,59.60
2018-07-25T18:41:58.203Z,59.80
2018-07-25T18:44:27.272Z,60.20
2018-07-25T18:46:56.427Z,61.30
2018-07-25T18:49:25.558Z,60.70
2018-07-25T18:51:54.882Z,61.40
2018-07-25T18:54:24.073Z,61.40
2018-07-25T18:56:53.271Z,61.30
2018-07-25T18:59:22.693Z,61.50
2018-07-25T19:01:51.797Z,62.00
2018-07-25T19:04:20.918Z,62.10
2018-07-25T19:06:50.123Z,62.30
2018-07-25T19:09:19.204Z,62.10
2018-07-25T19:11:48.346Z,62.40
2018-07-25T19:14:22.967Z,62.10
2018-07-25T19:16:52.619Z,62.10
2018-07-25T19:19:21.885Z,62.50
2018-07-25T19:21:51.008Z,63.00
2018-07-25T19:24:20.213Z,66.60
2018-07-25T19:26:50.137Z,70.50
2018-07-25T19:29:19.351Z,73.80
2018-07-25T19:31:48.617Z,79.40
2018-07-25T19:34:17.843Z,83.10
2018-07-25T19:36:47.421Z,82.20
2018-07-25T19:39:16.917Z,79.20
2018-07-25T19:41:46.015Z,80.00
2018-07-25T19:44:15.347Z,78.80
2018-07-25T19:46:44.529Z,78.40
2018-07-25T19:51:42.999Z,78.10
2018-07-25T19:54:12.327Z,77.60
2018-07-25T19:59:10.392Z,77.40
2018-07-25T20:01:39.572Z,75.00
2018-07-25T20:04:08.819Z,74.10
2018-07-25T20:06:38.006Z,73.30
2018-07-25T20:09:08.372Z,72.10
2018-07-25T20:11:37.742Z,71.90
2018-07-25T20:16:41.262Z,72.60
2018-07-25T20:19:10.543Z,71.60
2018-07-25T20:21:39.777Z,71.90
2018-07-25T20:24:09.490Z,71.70
2018-07-25T20:26:39.028Z,71.10
2018-07-25T20:29:08.525Z,71.50
2018-07-25T20:31:38.108Z,71.30
2018-07-25T20:34:07.355Z,71.70
2018-07-25T20:36:36.605Z,71.90
2018-07-25T20:39:09.499Z,72.20
2018-07-25T20:41:38.637Z,72.20
2018-07-25T20:44:08.672Z,72.20
2018-07-25T20:47:10.009Z,72.80
2018-07-25T20:52:08.389Z,73.60
2018-07-25T20:54:37.666Z,74.10
2018-07-25T20:57:10.174Z,74.30
2018-07-25T20:59:39.997Z,74.80
2018-07-25T21:02:10.055Z,75.10
2018-07-25T21:04:42.247Z,75.70
2018-07-25T21:07:11.712Z,76.80
2018-07-25T21:09:41.013Z,76.80
2018-07-25T21:14:39.035Z,77.70
2018-07-25T21:17:08.299Z,78.20
2018-07-25T21:22:06.495Z,78.60
2018-07-25T21:27:10.082Z,80.30
2018-07-25T21:29:39.395Z,80.40
2018-07-25T21:32:08.513Z,80.00
2018-07-25T21:34:37.678Z,81.00
2018-07-25T21:37:06.869Z,82.10
2018-07-25T21:39:36.070Z,82.30
2018-07-25T21:42:05.322Z,82.90
2018-07-25T21:44:34.763Z,82.50
2018-07-25T21:47:04.269Z,83.30
2018-07-25T21:49:33.485Z,83.30
2018-07-25T21:52:02.615Z,84.20
2018-07-25T21:54:32.548Z,84.90
2018-07-25T21:57:01.832Z,85.30
2018-07-25T21:59:31.089Z,85.60
2018-07-25T22:02:00.319Z,85.60
2018-07-25T22:04:29.673Z,86.70
2018-07-25T22:06:59.045Z,87.00
2018-07-25T22:09:28.154Z,87.40
2018-07-25T22:11:57.430Z,87.70
2018-07-25T22:14:26.811Z,87.70
2018-07-25T22:16:56.014Z,88.30
2018-07-25T22:22:00.661Z,89.70
2018-07-25T22:24:30.100Z,90.00
2018-07-25T22:26:59.217Z,90.30
2018-07-25T22:29:28.444Z,90.70
2018-07-25T22:31:57.736Z,91.00
2018-07-25T22:34:26.925Z,91.20
2018-07-25T22:36:56.148Z,91.90
2018-07-25T22:39:25.317Z,91.70
2018-07-25T22:41:54.814Z,91.70
2018-07-25T22:44:24.028Z,91.70
2018-07-25T22:46:53.313Z,92.00
2018-07-25T22:49:22.627Z,92.30
2018-07-25T22:51:51.956Z,92.60
2018-07-25T22:54:21.128Z,92.90
2018-07-25T22:56:50.496Z,93.10
2018-07-25T22:59:19.873Z,93.60
2018-07-25T23:01:48.987Z,93.60
2018-07-25T23:04:18.145Z,94.30
2018-07-25T23:06:47.463Z,94.40
2018-07-25T23:11:45.291Z,95.50
2018-07-25T23:14:14.679Z,95.40
2018-07-25T23:16:44.655Z,95.80
2018-07-25T23:19:13.941Z,96.00
2018-07-25T23:21:43.159Z,96.50
2018-07-25T23:24:13.015Z,97.00
2018-07-25T23:26:42.140Z,97.50
2018-07-25T23:29:11.554Z,98.00
2018-07-25T23:31:40.836Z,98.30
2018-07-25T23:34:09.931Z,98.80
2018-07-25T23:36:39.132Z,99.30
2018-07-25T23:39:09.988Z,99.60
2018-07-25T23:41:39.598Z,99.90
2018-07-25T23:44:09.003Z,99.90
2018-07-25T23:46:38.704Z,99.90
2018-07-25T23:49:08.144Z,99.90
2018-07-25T23:51:37.274Z,99.90
2018-07-25T23:54:06.578Z,99.90
2018-07-25T23:56:35.785Z,99.90
2018-07-25T23:59:05.403Z,99.90
